createdAt,value
2023-03-08T00:03:20.797Z,98302.97
2023-03-08T00:08:22.188Z,98290.97
2023-03-08T00:13:23.875Z,98312.59
2023-03-08T00:18:25.386Z,98318.03
2023-03-08T00:23:26.781Z,98332.75
2023-03-08T00:28:28.264Z,98329.72
2023-03-08T00:33:30.375Z,98330.91
2023-03-08T00:38:33.450Z,98343.16
2023-03-08T00:43:34.856Z,98345.06
2023-03-08T00:48:36.251Z,98344.75
2023-03-08T00:53:37.626Z,98352.19
2023-03-08T00:58:39.702Z,98357.63
2023-03-08T01:03:41.143Z,98361.97
2023-03-08T01:08:42.653Z,98353.47
2023-03-08T01:13:44.113Z,98352.13
2023-03-08T01:18:45.573Z,98358.47
2023-03-08T01:23:46.965Z,98368.25
2023-03-08T01:28:48.405Z,98354.31
2023-03-08T01:33:49.882Z,98353.53
2023-03-08T01:38:51.294Z,98347.56
2023-03-08T01:43:52.800Z,98353.25
2023-03-08T01:49:04.458Z,98355.13
2023-03-08T01:54:12.372Z,98351.31
2023-03-08T01:59:13.765Z,98341.81
2023-03-08T02:04:15.175Z,98352.44
2023-03-08T02:09:16.559Z,98341.72
2023-03-08T02:14:17.964Z,98349.38
2023-03-08T02:19:25.149Z,98343.69
2023-03-08T02:24:26.549Z,98354.88
2023-03-08T02:29:27.920Z,98346.94
2023-03-08T02:34:29.313Z,98354.59
2023-03-08T02:39:30.745Z,98355.16
2023-03-08T02:44:32.131Z,98345.06
2023-03-08T02:49:33.506Z,98361.97
2023-03-08T02:54:34.876Z,98353.22
2023-03-08T02:59:36.251Z,98363.34
2023-03-08T03:04:37.753Z,98351.66
2023-03-08T03:09:39.210Z,98354.09
2023-03-08T03:14:40.623Z,98366.34
2023-03-08T03:19:42.010Z,98372.91
2023-03-08T03:24:43.380Z,98361.72
2023-03-08T03:29:44.806Z,98368.00
2023-03-08T03:34:46.584Z,98373.41
2023-03-08T03:39:47.956Z,98370.69
2023-03-08T03:44:49.358Z,98377.00
2023-03-08T03:49:50.751Z,98380.56
2023-03-08T03:54:52.118Z,98388.19
2023-03-08T03:59:53.507Z,98382.97
2023-03-08T04:04:54.889Z,98385.47
2023-03-08T04:09:56.353Z,98394.22
2023-03-08T04:14:57.767Z,98393.09
2023-03-08T04:19:59.272Z,98390.88
2023-03-08T04:25:00.674Z,98393.38
2023-03-08T04:30:02.123Z,98398.88
2023-03-08T04:35:03.590Z,98388.75
2023-03-08T04:40:09.132Z,98387.91
2023-03-08T04:45:10.883Z,98386.00
2023-03-08T04:50:12.281Z,98388.22
2023-03-08T04:55:13.643Z,98386.03
2023-03-08T05:00:15.711Z,98385.69
2023-03-08T05:05:17.117Z,98382.16
2023-03-08T05:10:18.524Z,98388.75
2023-03-08T05:15:19.962Z,98392.06
2023-03-08T05:20:21.359Z,98386.00
2023-03-08T05:25:22.737Z,98402.91
2023-03-08T05:30:24.155Z,98396.66
2023-03-08T05:35:25.556Z,98393.41
2023-03-08T05:40:26.931Z,98400.69
2023-03-08T05:45:28.453Z,98404.81
2023-03-08T05:50:29.896Z,98412.44
2023-03-08T05:55:31.268Z,98411.41
2023-03-08T06:00:32.658Z,98412.69
2023-03-08T06:05:34.067Z,98418.41
2023-03-08T06:10:35.439Z,98414.91
2023-03-08T06:15:36.846Z,98412.75
2023-03-08T06:20:38.250Z,98414.91
2023-03-08T06:25:39.632Z,98420.84
2023-03-08T06:30:41.056Z,98434.28
2023-03-08T06:35:42.660Z,98420.94
2023-03-08T06:40:44.076Z,98412.22
2023-03-08T06:45:45.676Z,98411.31
2023-03-08T06:50:47.114Z,98385.91
2023-03-08T06:55:48.504Z,98396.31
2023-03-08T07:00:49.953Z,98398.00
2023-03-08T07:05:51.361Z,98402.88
2023-03-08T07:10:53.094Z,98415.16
2023-03-08T07:15:54.645Z,98411.31
2023-03-08T07:20:56.476Z,98423.16
2023-03-08T07:25:57.866Z,98415.47
2023-03-08T07:30:59.279Z,98412.44
2023-03-08T07:36:02.155Z,98412.13
2023-03-08T07:41:03.616Z,98416.53
2023-03-08T07:46:05.112Z,98413.56
2023-03-08T07:51:08.707Z,98414.59
2023-03-08T07:56:10.276Z,98406.09
2023-03-08T08:01:12.070Z,98418.69
2023-03-08T08:06:13.491Z,98415.44
2023-03-08T08:11:16.048Z,98414.25
2023-03-08T08:16:17.512Z,98404.06
2023-03-08T08:21:18.928Z,98396.41
2023-03-08T08:26:20.989Z,98385.47
2023-03-08T08:31:23.824Z,98395.69
2023-03-08T08:36:25.470Z,98385.75
2023-03-08T08:41:27.992Z,98390.09
2023-03-08T08:46:30.837Z,98385.19
2023-03-08T08:51:32.321Z,98365.63
2023-03-08T08:56:34.405Z,98370.78
2023-03-08T09:01:36.864Z,98365.28
2023-03-08T09:06:38.368Z,98355.66
2023-03-08T09:11:52.165Z,98345.34
2023-03-08T09:16:55.959Z,98333.94
2023-03-08T09:21:57.403Z,98317.44
2023-03-08T09:26:58.797Z,98317.69
2023-03-08T09:32:00.619Z,98307.88
2023-03-08T09:37:02.841Z,98295.94
2023-03-08T09:42:04.345Z,98289.91
2023-03-08T09:47:09.255Z,98283.03
2023-03-08T09:52:11.819Z,98266.63
2023-03-08T09:57:16.662Z,98265.81
2023-03-08T10:02:26.213Z,98254.19
2023-03-08T10:07:41.483Z,98249.13
2023-03-08T10:13:01.323Z,98245.25
2023-03-08T10:18:12.209Z,98243.66
2023-03-08T10:23:21.186Z,98242.69
2023-03-08T10:28:24.178Z,98234.66
2023-03-08T10:33:33.462Z,98236.97
2023-03-08T10:38:36.046Z,98223.81
2023-03-08T10:43:40.095Z,98219.41
2023-03-08T10:48:41.638Z,98208.06
2023-03-08T10:53:55.535Z,98205.16
2023-03-08T10:58:57.224Z,98190.03
2023-03-08T11:04:06.585Z,98185.91
2023-03-08T11:09:22.825Z,98167.09
2023-03-08T11:14:24.711Z,98160.31
2023-03-08T11:19:53.911Z,98135.28
2023-03-08T11:25:14.080Z,98123.16
2023-03-08T11:30:27.929Z,98105.19
2023-03-08T11:35:35.441Z,98099.16
2023-03-08T11:40:50.896Z,98090.34
2023-03-08T11:46:12.423Z,98074.44
2023-03-08T11:51:30.980Z,98061.59
2023-03-08T11:56:47.646Z,98047.56
2023-03-08T12:02:11.302Z,98036.94
2023-03-08T12:07:26.328Z,98021.91
2023-03-08T12:12:32.336Z,98018.56
2023-03-08T12:17:40.657Z,98012.19
2023-03-08T12:22:46.157Z,98009.81
2023-03-08T12:27:50.484Z,98009.13
2023-03-08T12:32:54.622Z,98002.69
2023-03-08T12:38:05.009Z,97997.00
2023-03-08T12:43:11.742Z,97994.13
2023-03-08T12:48:19.032Z,97977.41
2023-03-08T12:53:40.610Z,97986.56
2023-03-08T12:58:57.876Z,97985.97
2023-03-08T13:03:59.782Z,97995.28
2023-03-08T13:09:14.250Z,98003.97
2023-03-08T13:14:44.773Z,97999.25
2023-03-08T13:19:46.184Z,97994.78
2023-03-08T13:25:00.007Z,97996.78
2023-03-08T13:30:17.707Z,97983.47
2023-03-08T13:35:19.933Z,97973.91
2023-03-08T13:40:21.830Z,97977.81
2023-03-08T13:45:23.268Z,97971.59
2023-03-08T13:50:30.539Z,97961.84
2023-03-08T13:55:38.588Z,97947.06
2023-03-08T14:00:40.264Z,97931.84
2023-03-08T14:05:43.524Z,97930.88
2023-03-08T14:10:46.900Z,97925.94
2023-03-08T14:15:56.479Z,97919.97
2023-03-08T14:21:14.869Z,97902.19
2023-03-08T14:26:35.400Z,97909.06
2023-03-08T14:31:38.856Z,97901.50
2023-03-08T14:36:46.595Z,97894.31
2023-03-08T14:41:47.977Z,97899.88
2023-03-08T14:46:50.676Z,97886.00
2023-03-08T14:51:52.790Z,97873.72
2023-03-08T14:56:54.180Z,97864.44
2023-03-08T15:01:55.671Z,97869.69
2023-03-08T15:06:57.093Z,97857.66
2023-03-08T15:12:01.732Z,97833.75
2023-03-08T15:17:03.161Z,97820.69
2023-03-08T15:22:05.105Z,97826.25
2023-03-08T15:27:06.540Z,97831.63
2023-03-08T15:32:08.163Z,97827.25
2023-03-08T15:37:13.576Z,97823.41
2023-03-08T15:42:14.962Z,97824.22
2023-03-08T15:47:16.637Z,97803.66
2023-03-08T15:52:18.092Z,97790.00
2023-03-08T15:57:19.494Z,97787.38
2023-03-08T16:02:20.997Z,97786.56
2023-03-08T16:07:22.437Z,97771.66
2023-03-08T16:12:23.998Z,97769.63
2023-03-08T16:17:25.852Z,97772.38
2023-03-08T16:22:28.936Z,97781.09
2023-03-08T16:27:31.129Z,97779.75
2023-03-08T16:32:32.638Z,97769.63
2023-03-08T16:37:34.257Z,97769.72
2023-03-08T16:42:35.682Z,97773.06
2023-03-08T16:47:37.081Z,97756.75
2023-03-08T16:52:38.463Z,97763.03
2023-03-08T16:57:40.143Z,97764.19
2023-03-08T17:02:41.546Z,97773.47
2023-03-08T17:07:42.944Z,97764.34
2023-03-08T17:12:44.324Z,97755.13
2023-03-08T17:17:45.736Z,97760.09
2023-03-08T17:22:47.116Z,97756.44
2023-03-08T17:27:48.528Z,97755.34
2023-03-08T17:32:49.915Z,97749.44
2023-03-08T17:37:51.488Z,97730.44
2023-03-08T17:42:52.911Z,97726.22
2023-03-08T17:48:00.913Z,97738.69
2023-03-08T17:53:02.314Z,97723.09
2023-03-08T17:58:03.923Z,97726.00
2023-03-08T18:03:05.322Z,97734.06
2023-03-08T18:08:06.691Z,97735.22
2023-03-08T18:13:08.055Z,97743.59
2023-03-08T18:18:09.454Z,97754.34
2023-03-08T18:23:10.870Z,97748.22
2023-03-08T18:28:12.284Z,97752.28
2023-03-08T18:33:13.768Z,97740.47
2023-03-08T18:38:15.183Z,97727.09
2023-03-08T18:43:16.640Z,97732.25
2023-03-08T18:48:18.097Z,97732.25
2023-03-08T18:53:19.471Z,97736.13
2023-03-08T18:58:20.962Z,97744.53
2023-03-08T19:03:22.450Z,97739.44
2023-03-08T19:08:23.869Z,97725.66
2023-03-08T19:13:25.276Z,97725.88
2023-03-08T19:18:26.654Z,97718.63
2023-03-08T19:23:28.027Z,97723.47
2023-03-08T19:28:29.472Z,97724.56
2023-03-08T19:33:31.848Z,97738.50
2023-03-08T19:38:33.371Z,97733.75
2023-03-08T19:43:34.763Z,97736.94
2023-03-08T19:48:36.480Z,97735.16
2023-03-08T19:53:37.852Z,97726.34
2023-03-08T19:58:39.221Z,97718.28
2023-03-08T20:03:40.635Z,97715.66
2023-03-08T20:08:42.064Z,97724.97
2023-03-08T20:13:43.468Z,97725.44
2023-03-08T20:18:45.111Z,97728.00
2023-03-08T20:23:46.867Z,97729.44
2023-03-08T20:28:49.505Z,97736.22
2023-03-08T20:33:50.997Z,97728.91
2023-03-08T20:38:52.420Z,97739.31
2023-03-08T20:43:57.239Z,97742.16
2023-03-08T20:48:58.718Z,97741.94
2023-03-08T20:54:00.123Z,97743.59
2023-03-08T20:59:02.265Z,97742.56
2023-03-08T21:04:04.911Z,97740.50
2023-03-08T21:09:06.307Z,97736.31
2023-03-08T21:14:07.713Z,97736.50
2023-03-08T21:19:09.179Z,97724.19
2023-03-08T21:24:14.908Z,97722.72
2023-03-08T21:29:16.714Z,97725.25
2023-03-08T21:34:18.545Z,97712.00
2023-03-08T21:39:19.949Z,97714.44
2023-03-08T21:44:21.322Z,97711.78
2023-03-08T21:49:25.158Z,97706.41
2023-03-08T21:54:26.986Z,97702.50
2023-03-08T21:59:29.134Z,97698.66
2023-03-08T22:04:30.608Z,97686.31
2023-03-08T22:09:31.987Z,97686.72
2023-03-08T22:14:33.456Z,97684.56
2023-03-08T22:19:34.831Z,97682.28
2023-03-08T22:24:36.195Z,97683.81
2023-03-08T22:29:37.600Z,97686.91
2023-03-08T22:34:39.034Z,97683.16
2023-03-08T22:39:40.429Z,97661.53
2023-03-08T22:44:41.820Z,97668.50
2023-03-08T22:49:43.267Z,97673.25
2023-03-08T22:54:44.824Z,97668.19
2023-03-08T22:59:46.776Z,97662.94
2023-03-08T23:04:48.776Z,97677.63
2023-03-08T23:09:50.156Z,97672.94
2023-03-08T23:14:51.526Z,97663.22
2023-03-08T23:19:52.910Z,97666.28
2023-03-08T23:24:54.284Z,97661.53
2023-03-08T23:29:55.682Z,97659.88
2023-03-08T23:34:57.097Z,97658.28
2023-03-08T23:39:58.515Z,97661.03
2023-03-08T23:44:59.896Z,97656.56
2023-03-08T23:50:01.305Z,97643.94
2023-03-08T23:55:02.753Z,97623.00
